Time;durP1;ratioP1;P1;durP2;ratioP2;P2;SDS_P1;SDS_P2;PMS_P1;PMS_P2;Temp;Humidity;BMP_temperature;BMP_pressure;BME280_temperature;BME280_humidity;BME280_pressure;Samples;Min_cycle;Max_cycle;Signal;HPM_P1;HPM_P2
2023/07/01 00:00:48;;;;;;;3.85;2.10;;;;;;;20.89;43.13;99049.97;4919867;29;20170;-85
2023/07/01 00:03:15;;;;;;;4.43;2.30;;;;;;;20.89;43.29;99055.31;4918473;29;20087;-85
2023/07/01 00:05:41;;;;;;;7.53;2.75;;;;;;;20.88;43.39;99047.44;4919126;29;20065;-85
2023/07/01 00:08:11;;;;;;;3.40;2.30;;;;;;;20.89;43.27;99043.78;4936544;29;20150;-85
2023/07/01 00:10:37;;;;;;;3.75;2.38;;;;;;;20.89;43.07;99035.78;4919308;29;20083;-85
2023/07/01 00:13:07;;;;;;;2.90;1.92;;;;;;;20.87;43.45;99035.94;4919043;29;20052;-84
2023/07/01 00:15:33;;;;;;;3.72;2.25;;;;;;;20.86;43.27;99038.75;4936125;29;20570;-85
2023/07/01 00:18:00;;;;;;;6.10;2.30;;;;;;;20.85;43.45;99032.56;4935986;29;20475;-85
2023/07/01 00:20:31;;;;;;;2.92;2.08;;;;;;;20.83;43.64;99034.56;4936069;29;20422;-85
2023/07/01 00:23:07;;;;;;;4.97;2.35;;;;;;;20.77;43.82;99030.75;4935485;29;20060;-85
2023/07/01 00:25:40;;;;;;;4.70;2.47;;;;;;;20.80;43.80;99025.06;4935946;29;20051;-85
2023/07/01 00:28:28;;;;;;;3.53;2.30;;;;;;;20.79;43.65;99028.72;4918744;29;20623;-85
2023/07/01 00:30:58;;;;;;;7.05;2.90;;;;;;;20.78;43.79;99015.53;4936198;29;20519;-85
2023/07/01 00:33:42;;;;;;;5.68;2.63;;;;;;;20.72;43.90;99010.88;4935034;29;20075;-85
2023/07/01 00:36:20;;;;;;;4.80;2.33;;;;;;;20.77;43.94;99008.50;4935825;29;20055;-85
2023/07/01 00:38:52;;;;;;;5.20;2.60;;;;;;;;;;4935906;29;20056;-85
2023/07/01 00:41:23;;;;;;;5.50;2.55;;;;;;;;;;4919708;29;20438;-85
2023/07/01 00:43:58;;;;;;;5.28;2.20;;;;;;;20.70;44.27;99003.84;4918790;29;20056;-85
2023/07/01 00:49:06;;;;;;;5.63;2.53;;;;;;;20.69;44.18;98991.50;4914724;29;20083;-81
2023/07/01 00:51:32;;;;;;;3.20;2.28;;;;;;;20.69;44.12;98993.34;4916636;29;20126;-81
2023/07/01 00:53:59;;;;;;;4.30;2.33;;;;;;;20.68;44.25;98986.31;4924204;29;20055;-81
2023/07/01 00:56:25;;;;;;;9.27;2.70;;;;;;;20.68;44.45;98986.31;4935103;29;20059;-81
2023/07/01 00:58:52;;;;;;;5.22;2.38;;;;;;;20.68;44.54;98979.13;4935047;29;20352;-81
2023/07/01 01:01:24;;;;;;;3.50;2.35;;;;;;;20.66;44.69;98975.78;4935404;29;20056;-81
2023/07/01 01:04:03;;;;;;;4.07;2.60;;;;;;;20.65;44.92;98978.63;4930527;29;20099;-81
2023/07/01 01:06:46;;;;;;;3.80;2.80;;;;;;;20.64;44.63;98971.63;4915818;29;20496;-81
2023/07/01 01:09:37;;;;;;;3.53;2.30;;;;;;;20.66;44.87;98967.78;4899269;29;20091;-81
2023/07/01 01:12:06;;;;;;;3.47;2.10;;;;;;;20.66;44.88;98974.94;4915666;29;20091;-81
2023/07/01 01:14:35;;;;;;;7.97;2.85;;;;;;;20.65;44.65;98968.78;4922274;29;20060;-81
2023/07/01 01:17:04;;;;;;;4.05;2.58;;;;;;;20.63;44.89;98962.75;4917787;29;20110;-81
2023/07/01 01:19:41;;;;;;;3.80;2.15;;;;;;;20.60;45.26;98968.47;4917818;29;20055;-81
2023/07/01 01:22:09;;;;;;;6.00;2.67;;;;;;;20.60;44.93;98957.78;4917980;29;20055;-81
2023/07/01 01:24:40;;;;;;;2.95;2.20;;;;;;;20.59;45.21;98952.59;4913277;29;20143;-81
2023/07/01 01:27:11;;;;;;;4.43;2.75;;;;;;;20.59;44.91;98953.41;4923651;29;20138;-81
2023/07/01 01:29:37;;;;;;;4.97;3.10;;;;;;;20.59;44.89;98952.59;4934455;29;20056;-82
2023/07/01 01:32:07;;;;;;;4.68;2.58;;;;;;;20.57;45.03;98945.56;4935157;29;20056;-81
2023/07/01 01:34:34;;;;;;;5.18;2.50;;;;;;;20.56;45.14;98938.56;4932860;29;20499;-81
2023/07/01 01:37:05;;;;;;;7.03;2.67;;;;;;;20.54;45.44;98929.88;4915304;29;20099;-81
2023/07/01 01:39:38;;;;;;;3.70;2.50;;;;;;;20.54;45.65;98923.69;4898885;29;20060;-81
2023/07/01 01:42:20;;;;;;;4.80;2.80;;;;;;;20.51;45.24;98918.69;4898652;29;20088;-81
2023/07/01 01:44:52;;;;;;;4.95;2.90;;;;;;;20.52;45.56;98920.38;4915014;29;20056;-81
2023/07/01 01:47:21;;;;;;;5.32;2.90;;;;;;;20.51;45.13;98919.53;4934069;29;20503;-81
2023/07/01 01:49:52;;;;;;;4.90;2.40;;;;;;;20.49;45.36;98905.53;4934450;29;20059;-81
2023/07/01 01:52:20;;;;;;;6.00;2.92;;;;;;;20.47;45.53;98899.50;4934513;29;20060;-81
2023/07/01 01:54:48;;;;;;;4.72;2.63;;;;;;;20.47;45.49;98901.34;4933979;29;20051;-81
2023/07/01 01:57:16;;;;;;;4.72;2.78;;;;;;;20.46;45.66;98894.31;4917295;29;20135;-81
2023/07/01 01:59:44;;;;;;;6.53;2.65;;;;;;;20.43;45.75;98887.50;4915356;29;20083;-81
2023/07/01 02:02:11;;;;;;;4.72;2.60;;;;;;;20.42;45.50;98889.31;4914977;29;20072;-81
2023/07/01 02:04:38;;;;;;;4.53;2.70;;;;;;;20.40;45.74;98879.81;4914903;29;20072;-81
2023/07/01 02:07:05;;;;;;;5.93;2.88;;;;;;;20.37;45.68;98881.00;4910752;29;20055;-81
2023/07/01 02:09:32;;;;;;;5.95;3.05;;;;;;;20.36;45.61;98875.81;4933878;29;20134;-81
2023/07/01 02:11:58;;;;;;;3.22;2.55;;;;;;;20.36;45.66;98867.78;4934350;29;20066;-81
2023/07/01 02:14:25;;;;;;;5.38;3.00;;;;;;;20.35;45.61;98872.31;4917049;29;20048;-81
2023/07/01 02:16:53;;;;;;;3.33;2.63;;;;;;;20.34;45.84;98861.81;4924217;29;20435;-81
2023/07/01 02:19:20;;;;;;;5.40;3.00;;;;;;;20.31;45.98;98855.78;4914810;29;20531;-80
2023/07/01 02:21:46;;;;;;;3.63;2.47;;;;;;;20.32;45.89;98853.97;4914993;29;20066;-81
2023/07/01 02:24:12;;;;;;;5.22;2.63;;;;;;;20.31;45.73;98846.94;4915008;29;20416;-81
2023/07/01 02:26:39;;;;;;;4.93;2.95;;;;;;;20.30;46.04;98853.31;4918963;29;20052;-81
2023/07/01 02:29:05;;;;;;;5.82;2.95;;;;;;;20.29;46.07;98846.28;4916682;29;20067;-81
2023/07/01 02:31:32;;;;;;;4.47;2.60;;;;;;;20.28;46.05;98844.63;4933628;29;20514;-81
2023/07/01 02:34:02;;;;;;;4.93;2.78;;;;;;;20.26;46.39;98847.47;4933669;29;20114;-81
2023/07/01 02:36:30;;;;;;;3.95;2.63;;;;;;;20.26;46.24;98844.78;4915347;29;20063;-80
2023/07/01 02:38:56;;;;;;;4.70;2.95;;;;;;;20.24;46.24;98837.97;4914278;29;20052;-81
2023/07/01 02:41:22;;;;;;;4.40;2.67;;;;;;;20.23;46.08;98842.47;4929875;29;20422;-81
2023/07/01 02:43:49;;;;;;;6.72;2.78;;;;;;;20.21;46.48;98833.78;4933548;29;20063;-81
2023/07/01 02:46:15;;;;;;;5.07;2.95;;;;;;;20.20;46.50;98836.63;4933192;29;20059;-81
2023/07/01 02:48:42;;;;;;;4.03;2.10;;;;;;;20.17;46.28;98838.66;4920420;29;20076;-81
2023/07/01 02:51:08;;;;;;;5.75;3.08;;;;;;;20.18;46.62;98828.78;4929673;29;20055;-81
2023/07/01 02:53:35;;;;;;;5.60;2.47;;;;;;;20.17;46.06;98833.31;4914178;29;20060;-81
2023/07/01 02:56:02;;;;;;;4.50;2.63;;;;;;;20.16;46.48;98823.66;4914146;29;20059;-81
2023/07/01 02:58:28;;;;;;;4.15;2.70;;;;;;;20.15;46.30;98824.63;4925172;29;20060;-81
2023/07/01 03:00:55;;;;;;;4.43;2.88;;;;;;;20.14;46.44;98817.63;4918714;29;20059;-81
2023/07/01 03:03:21;;;;;;;5.88;2.42;;;;;;;20.14;46.64;98816.78;4914127;29;20060;-81
2023/07/01 03:05:48;;;;;;;5.25;2.75;;;;;;;20.13;46.63;98813.28;4914062;29;20056;-81
2023/07/01 03:08:14;;;;;;;4.03;2.72;;;;;;;20.13;46.50;98815.13;4913788;29;20100;-81
2023/07/01 03:10:41;;;;;;;6.35;3.03;;;;;;;20.13;46.49;98815.97;4923222;29;20074;-81
2023/07/01 03:13:07;;;;;;;6.45;3.13;;;;;;;20.12;46.33;98808.97;4933155;29;20055;-81
2023/07/01 03:15:33;;;;;;;5.10;2.80;;;;;;;20.10;46.39;98800.28;4932841;29;20503;-81
2023/07/01 03:18:00;;;;;;;4.95;3.20;;;;;;;20.10;46.29;98805.63;4932961;29;20143;-81
2023/07/01 03:20:26;;;;;;;3.47;2.67;;;;;;;20.07;46.34;98799.78;4928071;29;20094;-81
2023/07/01 03:22:56;;;;;;;5.70;2.90;;;;;;;20.05;46.71;98797.28;4896938;29;20060;-81
2023/07/01 03:25:23;;;;;;;4.88;2.63;;;;;;;20.04;46.88;98790.28;4914060;29;20530;-81
2023/07/01 03:27:50;;;;;;;10.57;2.90;;;;;;;20.02;46.56;98793.13;4913845;29;20062;-81
2023/07/01 03:30:17;;;;;;;4.35;2.50;;;;;;;20.00;46.55;98784.44;4897412;29;20060;-81
2023/07/01 03:32:46;;;;;;;4.28;2.80;;;;;;;20.01;46.68;98787.97;4933127;29;20063;-81
2023/07/01 03:35:14;;;;;;;3.38;2.38;;;;;;;20.00;46.71;98775.63;4932758;29;20338;-81
2023/07/01 03:37:43;;;;;;;3.83;2.53;;;;;;;19.99;46.74;98781.94;4932906;29;20067;-81
2023/07/01 03:40:12;;;;;;;3.10;2.25;;;;;;;19.98;46.66;98775.78;4933018;29;20063;-81
2023/07/01 03:42:42;;;;;;;3.20;2.70;;;;;;;19.97;47.01;98781.25;4916369;29;20365;-81
2023/07/01 03:45:11;;;;;;;8.23;2.67;;;;;;;19.98;46.85;98773.13;4913638;29;20052;-81
2023/07/01 03:47:43;;;;;;;4.38;2.63;;;;;;;19.97;46.74;98768.75;4913565;29;20068;-81
2023/07/01 03:50:11;;;;;;;4.32;2.63;;;;;;;19.96;46.77;98767.06;4897074;29;20143;-81
2023/07/01 03:52:38;;;;;;;6.57;2.58;;;;;;;19.96;46.69;98763.59;4927126;29;20051;-81
2023/07/01 03:55:08;;;;;;;5.43;2.47;;;;;;;19.95;46.81;98764.59;4932484;29;20506;-81
2023/07/01 03:57:35;;;;;;;4.57;2.55;;;;;;;19.94;46.91;98761.09;4932612;29;20056;-81
2023/07/01 04:00:18;;;;;;;3.72;2.40;;;;;;;19.93;46.88;98765.56;4932669;29;20063;-81
2023/07/01 04:02:46;;;;;;;5.43;2.35;;;;;;;19.93;47.09;98762.91;4921019;29;20064;-81
2023/07/01 04:05:13;;;;;;;4.38;2.40;;;;;;;19.93;47.07;98762.91;4913239;29;20542;-81
2023/07/01 04:07:41;;;;;;;3.95;2.30;;;;;;;19.95;47.01;98762.75;4896701;29;20133;-81
2023/07/01 04:10:08;;;;;;;4.82;2.38;;;;;;;19.96;46.95;98760.91;4916705;29;20052;-81
2023/07/01 04:12:36;;;;;;;5.53;2.58;;;;;;;19.96;47.02;98751.03;4918084;29;20055;-81
2023/07/01 04:15:08;;;;;;;3.47;2.35;;;;;;;20.00;47.09;98746.25;4909336;29;20059;-81
2023/07/01 04:17:35;;;;;;;5.63;2.60;;;;;;;19.99;47.08;98748.06;4935994;29;20059;-81
2023/07/01 04:20:03;;;;;;;4.75;2.40;;;;;;;20.01;47.25;98738.06;4930592;29;20198;-81
2023/07/01 04:22:29;;;;;;;4.45;2.15;;;;;;;20.03;46.96;98733.34;4916806;29;20487;-81
2023/07/01 04:24:56;;;;;;;4.75;2.40;;;;;;;20.03;46.99;98730.69;4916843;29;20064;-81
2023/07/01 04:27:22;;;;;;;3.67;2.55;;;;;;;20.06;47.27;98734.84;4916694;29;20587;-81
2023/07/01 04:29:48;;;;;;;4.13;1.92;;;;;;;20.08;47.16;98724.00;4900707;29;20056;-81
2023/07/01 04:32:15;;;;;;;4.72;2.50;;;;;;;20.09;47.26;98717.63;4914660;29;20052;-81
2023/07/01 04:34:41;;;;;;;5.50;2.38;;;;;;;20.11;47.24;98711.09;4917495;29;20435;-81
2023/07/01 04:37:08;;;;;;;4.82;2.05;;;;;;;20.12;47.11;98707.44;4916947;29;20067;-81
2023/07/01 04:39:34;;;;;;;6.68;2.17;;;;;;;20.14;47.35;98699.22;4916765;29;20060;-81
2023/07/01 04:42:01;;;;;;;4.90;2.35;;;;;;;20.15;47.50;98696.38;4914827;29;20086;-81
2023/07/01 04:44:27;;;;;;;5.75;2.28;;;;;;;20.16;47.43;98703.41;4935630;29;20048;-81
2023/07/01 04:46:53;;;;;;;2.67;2.00;;;;;;;20.17;47.63;98694.38;4918001;29;20434;-81
2023/07/01 04:49:20;;;;;;;4.38;2.20;;;;;;;20.21;47.34;98696.69;4935438;29;20062;-81
2023/07/01 04:51:46;;;;;;;5.45;2.22;;;;;;;20.22;47.30;98690.34;4907574;29;20071;-81
2023/07/01 04:54:13;;;;;;;3.70;2.10;;;;;;;20.23;47.11;98692.00;4899455;29;20513;-81
2023/07/01 04:56:39;;;;;;;6.47;2.35;;;;;;;20.25;47.57;98692.66;4916041;29;20087;-81
2023/07/01 04:59:06;;;;;;;5.53;2.28;;;;;;;20.26;47.44;98684.47;4899591;29;20067;-81
2023/07/01 05:01:32;;;;;;;3.10;2.03;;;;;;;20.28;47.54;98694.97;4922249;29;20438;-81
2023/07/01 05:03:59;;;;;;;6.15;2.38;;;;;;;20.30;47.36;98688.44;4935143;29;20048;-81
2023/07/01 05:06:25;;;;;;;2.55;2.08;;;;;;;20.31;47.60;98679.41;4934904;29;20487;-81
2023/07/01 05:08:53;;;;;;;7.53;2.20;;;;;;;20.33;47.40;98678.44;4917944;29;20160;-81
2023/07/01 05:11:19;;;;;;;2.83;2.05;;;;;;;20.35;47.60;98679.06;4916669;29;20060;-81
2023/07/01 05:13:46;;;;;;;14.77;2.83;;;;;;;20.37;47.63;98677.88;4899454;29;20048;-81
2023/07/01 05:16:12;;;;;;;4.35;2.22;;;;;;;20.41;47.95;98681.03;4916098;29;20550;-81
2023/07/01 05:18:38;;;;;;;3.50;2.25;;;;;;;20.45;47.88;98677.00;4915914;29;20060;-81
2023/07/01 05:21:05;;;;;;;3.88;1.90;;;;;;;20.48;47.69;98670.47;4899304;29;20063;-81
2023/07/01 05:23:31;;;;;;;6.72;2.25;;;;;;;20.51;47.71;98667.41;4916750;29;20510;-81
2023/07/01 05:25:58;;;;;;;3.05;2.08;;;;;;;20.52;47.88;98664.56;4918078;29;20052;-81
2023/07/01 05:28:24;;;;;;;5.40;2.20;;;;;;;20.55;47.63;98658.03;4934761;29;20055;-81
2023/07/01 05:30:51;;;;;;;6.00;2.10;;;;;;;20.57;47.57;98659.50;4916897;29;20055;-81
2023/07/01 05:33:18;;;;;;;6.13;2.15;;;;;;;20.60;47.57;98661.00;4923323;29;20091;-81
2023/07/01 05:35:44;;;;;;;4.90;2.00;;;;;;;20.63;47.44;98660.63;4915602;29;20052;-81
2023/07/01 05:38:12;;;;;;;5.13;2.20;;;;;;;20.65;47.85;98658.63;4915238;29;20067;-81
2023/07/01 05:40:39;;;;;;;4.70;2.20;;;;;;;20.69;47.77;98670.63;4915750;29;20060;-81
2023/07/01 05:43:05;;;;;;;4.57;2.20;;;;;;;20.70;48.00;98658.91;4929127;29;20515;-81
2023/07/01 05:45:32;;;;;;;2.60;2.03;;;;;;;20.74;47.80;98661.22;4900991;29;20056;-81
2023/07/01 05:47:58;;;;;;;6.18;2.40;;;;;;;20.77;47.80;98658.16;4934090;29;20055;-82
2023/07/01 05:50:25;;;;;;;5.72;2.50;;;;;;;20.79;47.63;98665.00;4934358;29;20056;-82
2023/07/01 05:52:51;;;;;;;6.00;2.50;;;;;;;20.81;47.71;98672.84;4924951;29;20594;-82
2023/07/01 05:55:18;;;;;;;3.47;2.03;;;;;;;20.81;48.06;98652.28;4915421;29;20055;-83
2023/07/01 05:57:44;;;;;;;5.95;2.30;;;;;;;20.82;47.90;98661.97;4915413;29;20060;-82
2023/07/01 06:00:13;;;;;;;6.47;2.20;;;;;;;20.83;47.98;98660.13;4915296;29;20068;-82
2023/07/01 06:02:40;;;;;;;4.68;2.10;;;;;;;20.84;48.24;98659.13;4920118;29;20657;-83
2023/07/01 06:05:22;;;;;;;11.98;2.22;;;;;;;20.83;48.07;98666.28;4933580;29;20083;-82
2023/07/01 06:07:49;;;;;;;5.22;1.65;;;;;;;20.90;47.82;98666.44;4933699;29;20063;-83
2023/07/01 06:10:15;;;;;;;3.25;1.92;;;;;;;20.91;48.01;98660.09;4934141;29;20063;-83
2023/07/01 06:12:42;;;;;;;6.45;2.10;;;;;;;20.95;48.01;98655.19;4930838;29;20526;-82
2023/07/01 06:15:09;;;;;;;4.65;2.08;;;;;;;20.97;48.30;98642.47;4898063;29;20056;-82
2023/07/01 06:17:35;;;;;;;4.20;2.08;;;;;;;21.00;47.94;98643.97;4914609;29;20091;-82
2023/07/01 06:20:02;;;;;;;6.03;1.95;;;;;;;21.02;48.06;98644.59;4914812;29;20066;-83
2023/07/01 06:22:31;;;;;;;3.05;2.17;;;;;;;21.02;48.27;98648.13;4898558;29;20068;-83
2023/07/01 06:24:57;;;;;;;2.72;1.77;;;;;;;21.04;48.20;98642.59;4915475;29;20055;-83
2023/07/01 06:27:24;;;;;;;2.60;1.67;;;;;;;21.04;48.11;98651.44;4916817;29;20067;-83
2023/07/01 06:29:50;;;;;;;5.43;1.90;;;;;;;21.06;48.25;98640.53;4933652;29;20063;-83
2023/07/01 06:32:17;;;;;;;5.40;2.20;;;;;;;21.07;48.25;98647.56;4932604;29;20069;-82
2023/07/01 06:34:43;;;;;;;2.90;1.95;;;;;;;21.07;48.54;98645.72;4920011;29;20104;-82
2023/07/01 06:37:10;;;;;;;4.07;1.75;;;;;;;21.08;48.47;98635.81;4914404;29;20056;-83
2023/07/01 06:39:36;;;;;;;4.57;2.25;;;;;;;21.12;48.67;98642.47;4914742;29;20056;-83
2023/07/01 06:42:05;;;;;;;4.20;2.10;;;;;;;21.14;48.94;98629.75;4897928;29;20063;-83
2023/07/01 06:44:31;;;;;;;1.92;1.60;;;;;;;21.17;48.83;98653.47;4923186;29;20066;-82
2023/07/01 06:49:37;;;;;;;4.22;1.73;;;;;;;21.21;48.78;98649.41;5023919;23;20511;-85
2023/07/01 06:52:06;;;;;;;6.35;2.65;;;;;;;21.21;48.85;98641.41;4952862;29;20506;-85
2023/07/01 06:54:32;;;;;;;3.08;2.17;;;;;;;21.22;48.86;98651.06;4935695;29;20055;-84
2023/07/01 06:56:59;;;;;;;4.13;1.88;;;;;;;21.22;48.72;98653.75;4952415;29;20057;-85
2023/07/01 06:59:26;;;;;;;4.57;1.98;;;;;;;21.24;48.85;98660.75;4952917;29;20071;-84
2023/07/01 07:01:52;;;;;;;4.25;1.95;;;;;;;21.24;49.12;98660.75;4952679;29;20459;-85
2023/07/01 07:04:19;;;;;;;3.97;2.10;;;;;;;21.22;49.22;98648.41;4935354;29;20055;-84
2023/07/01 07:06:46;;;;;;;5.32;2.08;;;;;;;21.20;49.46;98649.59;4952291;29;20055;-84
2023/07/01 07:09:12;;;;;;;4.88;2.10;;;;;;;21.18;49.58;98652.47;4935276;29;20091;-84
2023/07/01 07:11:40;;;;;;;4.80;1.80;;;;;;;21.17;49.55;98641.94;4935003;29;20134;-84
2023/07/01 07:14:06;;;;;;;3.00;1.83;;;;;;;21.16;49.65;98653.66;4934858;29;20059;-84
2023/07/01 07:16:34;;;;;;;4.60;2.17;;;;;;;21.14;49.59;98648.50;4951619;29;20114;-84
2023/07/01 07:19:01;;;;;;;3.45;1.65;;;;;;;21.14;49.79;98651.16;4952167;29;20055;-84
2023/07/01 07:21:28;;;;;;;4.30;2.03;;;;;;;21.13;49.95;98648.66;4951731;29;20490;-84
2023/07/01 07:23:54;;;;;;;3.17;1.83;;;;;;;21.11;50.04;98654.19;4951887;29;20475;-85
2023/07/01 07:26:21;;;;;;;2.55;1.70;;;;;;;21.09;50.12;98648.22;4951676;29;20569;-84
2023/07/01 07:28:47;;;;;;;3.83;1.50;;;;;;;21.06;50.52;98649.41;4951549;29;20063;-84
2023/07/01 07:31:14;;;;;;;6.43;2.13;;;;;;;21.05;50.48;98654.94;4934768;29;20134;-84
2023/07/01 07:33:41;;;;;;;3.67;2.00;;;;;;;21.04;50.49;98650.63;4934639;29;20604;-84
2023/07/01 07:36:07;;;;;;;6.90;2.35;;;;;;;21.03;50.74;98656.94;4934428;29;20496;-84
2023/07/01 07:38:33;;;;;;;3.25;1.90;;;;;;;21.02;50.93;98647.28;4951460;29;20066;-84
2023/07/01 07:41:00;;;;;;;4.15;1.95;;;;;;;21.00;51.09;98652.00;4951554;29;20518;-84
2023/07/01 07:43:26;;;;;;;3.70;1.98;;;;;;;20.99;51.72;98653.81;4952507;28;20110;-86
2023/07/01 07:45:53;;;;;;;2.80;1.98;;;;;;;20.98;51.60;98652.16;4954836;29;20487;-84
2023/07/01 07:48:19;;;;;;;4.55;1.50;;;;;;;20.98;51.68;98646.81;4954762;28;20079;-84
2023/07/01 07:50:46;;;;;;;5.60;2.35;;;;;;;20.97;51.73;98655.84;4955554;29;20114;-84
2023/07/01 07:53:16;;;;;;;3.63;1.70;;;;;;;20.96;51.76;98649.66;4955382;29;20063;-85
2023/07/01 07:55:45;;;;;;;8.43;1.77;;;;;;;20.94;52.04;98646.34;4941670;29;20083;-85
2023/07/01 07:58:19;;;;;;;2.17;1.60;;;;;;;20.92;52.43;98658.22;4920372;29;20130;-85
2023/07/01 08:00:53;;;;;;;2.13;1.30;;;;;;;20.90;51.93;98642.38;4919077;29;20499;-85
2023/07/01 08:03:38;;;;;;;2.92;1.50;;;;;;;20.90;51.91;98652.25;4920392;29;20055;-85
2023/07/01 08:06:07;;;;;;;4.43;1.65;;;;;;;20.89;52.04;98640.72;4943433;29;20516;-85
2023/07/01 08:08:38;;;;;;;2.20;1.67;;;;;;;20.88;52.07;98641.72;4938514;29;20055;-86
2023/07/01 08:11:07;;;;;;;3.85;1.65;;;;;;;20.89;52.22;98643.38;4955643;29;20110;-85
2023/07/01 08:13:50;;;;;;;4.97;1.63;;;;;;;20.87;52.75;98648.09;4939889;29;20141;-86
2023/07/01 08:16:17;;;;;;;2.42;1.60;;;;;;;20.93;52.50;98643.88;4955064;29;20494;-85
2023/07/01 08:18:43;;;;;;;5.95;1.60;;;;;;;20.95;52.44;98637.31;4937859;29;20059;-85
2023/07/01 08:21:18;;;;;;;5.32;2.08;;;;;;;21.00;52.67;98654.66;4938403;29;20063;-86
2023/07/01 08:23:48;;;;;;;6.15;1.80;;;;;;;21.03;53.06;98643.56;4955538;29;20090;-85
2023/07/01 08:26:36;;;;;;;3.75;1.80;;;;;;;21.08;52.60;98639.34;4939334;29;20051;-85
2023/07/01 08:29:15;;;;;;;5.70;1.88;;;;;;;21.08;53.27;98642.03;4937499;29;20059;-86
2023/07/01 08:35:41;;;;;;;1.75;1.15;;;;;;;21.17;52.57;98640.09;4955023;29;20046;-86
2023/07/01 08:38:31;;;;;;;1.23;0.93;;;;;;;21.14;52.35;98644.97;4941226;29;20061;-85
2023/07/01 08:41:31;;;;;;;1.48;1.38;;;;;;;21.04;53.80;98635.38;4955207;29;20343;-86
2023/07/01 08:44:14;;;;;;;0.85;0.85;;;;;;;21.01;53.93;98633.06;4954156;29;20569;-85
2023/07/01 08:47:15;;;;;;;3.10;0.93;;;;;;;20.94;53.94;98627.59;4954481;29;20509;-86
2023/07/01 08:49:55;;;;;;;2.45;1.17;;;;;;;20.93;54.22;98625.16;4938468;29;20051;-85
2023/07/01 08:52:28;;;;;;;2.17;1.20;;;;;;;20.94;54.10;98629.47;4955115;29;20402;-85
2023/07/01 08:54:55;;;;;;;2.43;1.40;;;;;;;20.95;53.84;98623.09;4937316;29;20142;-85
2023/07/01 08:57:41;;;;;;;3.88;2.05;;;;;;;20.93;54.12;98622.47;4937488;29;20338;-85
2023/07/01 09:00:25;;;;;;;1.95;1.33;;;;;;;20.93;54.46;98627.81;4938305;29;20062;-85
2023/07/01 09:02:56;;;;;;;3.58;1.90;;;;;;;20.94;54.22;98624.13;4955093;29;20059;-85
2023/07/01 09:05:49;;;;;;;;;;;;;;;;;;;;;
2023/07/01 09:08:20;;;;;;;2.50;1.60;;;;;;;20.90;54.58;98617.47;4954466;29;20065;-85
2023/07/01 09:10:56;;;;;;;3.03;1.83;;;;;;;20.87;54.74;98624.03;4936616;29;20552;-85
2023/07/01 09:13:42;;;;;;;2.42;1.63;;;;;;;20.85;55.06;98622.53;4954594;29;20588;-86
2023/07/01 09:16:38;;;;;;;3.63;1.80;;;;;;;20.79;54.50;98632.91;4949476;29;20054;-85
2023/07/01 09:19:22;;;;;;;2.85;2.05;;;;;;;20.80;54.61;98633.75;4937207;29;20063;-85
2023/07/01 09:21:48;;;;;;;4.35;1.77;;;;;;;20.79;54.50;98626.75;4937373;29;20067;-85
2023/07/01 09:24:43;;;;;;;2.80;2.05;;;;;;;20.72;55.32;98639.16;4938032;29;20138;-85
2023/07/01 09:27:46;;;;;;;1.88;1.73;;;;;;;20.70;55.46;98628.66;4937162;29;20091;-85
2023/07/01 09:30:27;;;;;;;3.05;2.10;;;;;;;20.70;55.28;98626.81;4954328;29;20079;-85
2023/07/01 09:33:15;;;;;;;2.30;2.10;;;;;;;20.71;55.61;98627.66;4935503;29;20068;-85
2023/07/01 09:35:49;;;;;;;3.83;1.83;;;;;;;20.75;55.69;98628.13;4918405;29;20087;-86
2023/07/01 09:38:54;;;;;;;5.90;2.17;;;;;;;20.73;56.28;98619.44;4908396;29;20056;-86
2023/07/01 09:41:30;;;;;;;4.75;2.20;;;;;;;20.77;56.11;98636.78;4925687;29;20418;-84
2023/07/01 09:44:14;;;;;;;3.42;2.08;;;;;;;20.78;55.79;98635.78;4937681;29;20113;-85
2023/07/01 09:46:46;;;;;;;2.15;1.95;;;;;;;20.77;56.14;98626.94;4936723;29;20522;-85
2023/07/01 09:53:20;;;;;;;3.35;2.38;;;;;;;20.69;56.36;98622.50;4946699;29;20569;-85
2023/07/01 09:55:51;;;;;;;2.63;2.42;;;;;;;20.69;56.74;98621.66;4953949;29;20102;-85
2023/07/01 09:58:44;;;;;;;2.72;2.53;;;;;;;20.66;56.91;98617.50;4942375;29;20055;-85
2023/07/01 10:01:32;;;;;;;2.92;2.63;;;;;;;20.62;57.24;98616.19;4953197;29;20063;-86
2023/07/01 10:04:05;;;;;;;3.15;2.78;;;;;;;20.59;57.32;98613.88;4954133;29;20063;-85
2023/07/01 10:06:45;;;;;;;3.80;2.78;;;;;;;20.57;56.74;98615.91;4935885;29;20059;-85
2023/07/01 10:09:29;;;;;;;;;;;;;;;;;;;;;
2023/07/01 10:13:02;;;;;;;2.58;2.38;;;;;;;20.52;58.21;98620.97;4953120;29;20063;-85
2023/07/01 10:19:26;;;;;;;3.17;2.88;;;;;;;20.44;58.85;98616.50;4926722;23;20495;-79
2023/07/01 10:21:53;;;;;;;3.65;2.97;;;;;;;20.46;57.86;98609.16;4933850;29;20075;-80
2023/07/01 10:24:38;;;;;;;4.20;3.50;;;;;;;20.39;59.38;98610.88;4934228;29;20056;-79
2023/07/01 10:27:05;;;;;;;3.50;2.90;;;;;;;20.40;58.21;98605.38;4933441;29;20071;-78
2023/07/01 10:29:33;;;;;;;3.67;3.38;;;;;;;20.39;58.61;98605.53;4933238;29;20111;-79
2023/07/01 10:32:08;;;;;;;4.28;3.40;;;;;;;20.36;60.22;98605.88;4932619;29;20055;-79
2023/07/01 10:34:53;;;;;;;3.53;3.22;;;;;;;20.35;60.39;98604.22;4933320;29;20059;-78
2023/07/01 10:37:22;;;;;;;5.22;3.10;;;;;;;20.41;59.36;98596.31;4933000;29;20056;-79
2023/07/01 10:39:49;;;;;;;3.25;2.95;;;;;;;20.43;59.13;98596.16;4933027;29;20118;-78
2023/07/01 10:42:45;;;;;;;2.95;2.75;;;;;;;20.40;60.26;98604.53;4932740;29;20141;-79
2023/07/01 10:45:12;;;;;;;3.30;3.00;;;;;;;20.44;58.96;98604.00;4921195;29;20056;-79
2023/07/01 10:48:02;;;;;;;3.72;3.40;;;;;;;20.43;59.10;98604.16;4933660;29;20083;-78
2023/07/01 10:50:29;;;;;;;3.05;2.80;;;;;;;20.40;59.40;98602.69;4933480;29;20469;-78
2023/07/01 10:52:56;;;;;;;3.40;3.10;;;;;;;20.36;59.42;98596.03;4933095;29;20446;-79
2023/07/01 10:55:49;;;;;;;3.08;2.70;;;;;;;20.27;60.84;98600.63;4933334;29;20063;-80
2023/07/01 10:58:21;;;;;;;3.05;2.75;;;;;;;20.30;60.67;98596.78;4930765;29;20424;-78
2023/07/01 11:00:58;;;;;;;3.58;2.80;;;;;;;20.25;61.31;98596.47;4933574;29;20525;-78
2023/07/01 11:03:36;;;;;;;3.80;2.55;;;;;;;20.22;61.26;98589.63;4932981;29;20067;-79
2023/07/01 11:06:10;;;;;;;3.42;2.90;;;;;;;20.22;61.33;98592.31;4933175;29;20420;-78
2023/07/01 11:08:46;;;;;;;3.13;2.83;;;;;;;20.21;61.39;98589.81;4933344;29;20078;-79
2023/07/01 11:11:24;;;;;;;2.95;2.65;;;;;;;20.17;61.88;98587.50;4933481;29;20055;-78
2023/07/01 11:13:54;;;;;;;3.10;2.80;;;;;;;20.22;61.80;98591.50;4932743;29;20058;-79
2023/07/01 11:16:21;;;;;;;2.72;2.53;;;;;;;20.23;60.98;98593.16;4917093;29;20551;-78
2023/07/01 11:18:50;;;;;;;3.00;2.70;;;;;;;20.24;61.31;98589.47;4933127;29;20063;-78
2023/07/01 11:21:22;;;;;;;2.85;2.65;;;;;;;20.26;62.48;98585.59;4933365;29;20062;-79
2023/07/01 11:23:54;;;;;;;3.88;2.60;;;;;;;20.29;62.43;98573.72;4932848;29;20056;-79
2023/07/01 11:26:26;;;;;;;2.60;2.35;;;;;;;20.33;61.94;98572.34;4932826;29;20062;-78
2023/07/01 11:28:53;;;;;;;3.00;2.28;;;;;;;20.37;61.41;98575.50;4916317;29;20066;-79
2023/07/01 11:31:21;;;;;;;2.80;2.60;;;;;;;20.42;61.85;98589.97;4933368;29;20055;-79
2023/07/01 11:33:50;;;;;;;2.40;2.20;;;;;;;20.46;61.61;98589.59;4932854;29;20056;-79
2023/07/01 11:36:19;;;;;;;2.40;2.20;;;;;;;20.48;61.79;98582.25;4932913;29;20063;-79
2023/07/01 11:38:48;;;;;;;2.53;2.33;;;;;;;20.48;61.63;98574.25;4916044;29;20059;-78
2023/07/01 11:41:17;;;;;;;2.97;2.70;;;;;;;20.47;61.71;98580.56;4933119;29;20465;-79
2023/07/01 11:43:44;;;;;;;2.50;2.30;;;;;;;20.45;61.59;98583.44;4932839;29;20079;-79
2023/07/01 11:46:12;;;;;;;2.88;2.60;;;;;;;20.44;61.80;98585.28;4932841;29;20059;-78
2023/07/01 11:48:42;;;;;;;2.65;2.45;;;;;;;20.42;62.07;98583.81;4932995;29;20059;-79
2023/07/01 11:51:08;;;;;;;2.88;2.67;;;;;;;20.41;62.33;98585.63;4932854;29;20063;-78
2023/07/01 11:53:57;;;;;;;2.88;2.60;;;;;;;20.37;63.91;98583.53;4915789;29;20063;-78
2023/07/01 11:56:23;;;;;;;2.70;2.50;;;;;;;20.44;62.56;98582.59;4932750;29;20055;-79
2023/07/01 11:58:51;;;;;;;2.85;2.60;;;;;;;20.48;62.90;98582.25;4932975;29;20166;-78
2023/07/01 12:01:28;;;;;;;2.80;2.60;;;;;;;20.52;62.75;98578.22;4932961;29;20059;-78
2023/07/01 12:03:55;;;;;;;2.47;2.30;;;;;;;20.55;62.96;98569.81;4932259;29;20107;-78
2023/07/01 12:06:24;;;;;;;2.60;2.40;;;;;;;20.58;63.04;98572.13;4932730;29;20075;-79
2023/07/01 12:08:54;;;;;;;2.60;2.40;;;;;;;20.61;63.87;98581.63;4932322;29;20051;-78
2023/07/01 12:11:43;;;;;;;2.80;2.60;;;;;;;20.64;64.60;98573.25;4912351;29;20143;-79